sensor_id;sensor_type;location;lat;lon;timestamp;pressure;altitude;pressure_sealevel;temperature;humidity
73981;BME280;62348;51.412;5.436;2023-04-15T00:00:13;100602.00;;;7.71;70.26
73981;BME280;62348;51.412;5.436;2023-04-15T00:02:40;100611.72;;;7.72;71.01
73981;BME280;62348;51.412;5.436;2023-04-15T00:05:06;100600.88;;;7.67;71.00
73981;BME280;62348;51.412;5.436;2023-04-15T00:07:32;100596.22;;;7.62;69.92
73981;BME280;62348;51.412;5.436;2023-04-15T00:09:58;100601.59;;;7.62;70.51
73981;BME280;62348;51.412;5.436;2023-04-15T00:12:24;100600.56;;;7.63;71.52
73981;BME280;62348;51.412;5.436;2023-04-15T00:14:50;100595.09;;;7.58;71.07
73981;BME280;62348;51.412;5.436;2023-04-15T00:17:16;100593.47;;;7.57;70.09
73981;BME280;62348;51.412;5.436;2023-04-15T00:19:41;100589.94;;;7.57;70.40
73981;BME280;62348;51.412;5.436;2023-04-15T00:22:08;100592.34;;;7.53;70.03
73981;BME280;62348;51.412;5.436;2023-04-15T00:24:33;100593.94;;;7.54;70.27
73981;BME280;62348;51.412;5.436;2023-04-15T00:26:59;100590.22;;;7.55;69.11
73981;BME280;62348;51.412;5.436;2023-04-15T00:29:25;100590.94;;;7.51;70.88
73981;BME280;62348;51.412;5.436;2023-04-15T00:31:50;100589.09;;;7.51;70.36
73981;BME280;62348;51.412;5.436;2023-04-15T00:34:16;100589.31;;;7.50;71.46
73981;BME280;62348;51.412;5.436;2023-04-15T00:36:41;100592.81;;;7.50;71.70
73981;BME280;62348;51.412;5.436;2023-04-15T00:39:07;100593.06;;;7.49;69.55
73981;BME280;62348;51.412;5.436;2023-04-15T00:41:32;100598.94;;;7.46;70.89
73981;BME280;62348;51.412;5.436;2023-04-15T00:43:59;100599.91;;;7.39;71.91
73981;BME280;62348;51.412;5.436;2023-04-15T00:46:26;100589.66;;;7.36;72.44
73981;BME280;62348;51.412;5.436;2023-04-15T00:48:53;100603.09;;;7.36;71.57
73981;BME280;62348;51.412;5.436;2023-04-15T00:51:19;100610.03;;;7.32;71.63
73981;BME280;62348;51.412;5.436;2023-04-15T00:53:44;100601.97;;;7.32;72.18
73981;BME280;62348;51.412;5.436;2023-04-15T00:56:10;100606.47;;;7.27;72.20
73981;BME280;62348;51.412;5.436;2023-04-15T00:58:36;100607.25;;;7.27;73.00
73981;BME280;62348;51.412;5.436;2023-04-15T01:01:02;100602.94;;;7.26;72.45
73981;BME280;62348;51.412;5.436;2023-04-15T01:03:28;100605.28;;;7.22;72.12
73981;BME280;62348;51.412;5.436;2023-04-15T01:05:54;100602.88;;;7.21;71.51
73981;BME280;62348;51.412;5.436;2023-04-15T01:08:29;100599.34;;;7.20;72.30
73981;BME280;62348;51.412;5.436;2023-04-15T01:10:56;100591.78;;;7.17;73.05
73981;BME280;62348;51.412;5.436;2023-04-15T01:13:23;100594.72;;;7.16;73.55
73981;BME280;62348;51.412;5.436;2023-04-15T01:15:50;100593.91;;;7.15;73.03
73981;BME280;62348;51.412;5.436;2023-04-15T01:18:16;100603.50;;;7.11;72.75
73981;BME280;62348;51.412;5.436;2023-04-15T01:20:42;100594.94;;;7.14;72.57
73981;BME280;62348;51.412;5.436;2023-04-15T01:23:07;100594.63;;;7.11;73.14
73981;BME280;62348;51.412;5.436;2023-04-15T01:25:34;100598.63;;;7.08;73.60
73981;BME280;62348;51.412;5.436;2023-04-15T01:27:59;100595.13;;;7.08;73.14
73981;BME280;62348;51.412;5.436;2023-04-15T01:30:25;100595.59;;;7.04;74.04
73981;BME280;62348;51.412;5.436;2023-04-15T01:32:51;100594.03;;;7.09;73.50
73981;BME280;62348;51.412;5.436;2023-04-15T01:35:17;100596.41;;;7.05;74.48
73981;BME280;62348;51.412;5.436;2023-04-15T01:37:43;100599.34;;;7.03;73.48
73981;BME280;62348;51.412;5.436;2023-04-15T01:40:09;100598.53;;;7.03;74.76
73981;BME280;62348;51.412;5.436;2023-04-15T01:42:36;100606.50;;;6.98;73.81
73981;BME280;62348;51.412;5.436;2023-04-15T01:45:02;100598.19;;;6.99;73.73
73981;BME280;62348;51.412;5.436;2023-04-15T01:47:27;100595.25;;;7.01;74.44
73981;BME280;62348;51.412;5.436;2023-04-15T01:49:52;100590.69;;;7.01;73.29
73981;BME280;62348;51.412;5.436;2023-04-15T01:52:18;100601.69;;;7.00;73.59
73981;BME280;62348;51.412;5.436;2023-04-15T01:54:43;100598.75;;;7.01;72.41
73981;BME280;62348;51.412;5.436;2023-04-15T01:57:09;100602.75;;;6.99;73.55
73981;BME280;62348;51.412;5.436;2023-04-15T01:59:34;100597.84;;;6.96;73.54
73981;BME280;62348;51.412;5.436;2023-04-15T02:02:00;100598.69;;;6.96;74.06
73981;BME280;62348;51.412;5.436;2023-04-15T02:04:26;100603.22;;;6.96;72.53
73981;BME280;62348;51.412;5.436;2023-04-15T02:06:52;100596.47;;;6.93;72.77
73981;BME280;62348;51.412;5.436;2023-04-15T02:09:17;100602.91;;;6.92;73.20
73981;BME280;62348;51.412;5.436;2023-04-15T02:11:43;100606.44;;;6.93;73.43
73981;BME280;62348;51.412;5.436;2023-04-15T02:14:09;100602.84;;;6.87;73.98
73981;BME280;62348;51.412;5.436;2023-04-15T02:16:34;100598.72;;;6.84;74.38
73981;BME280;62348;51.412;5.436;2023-04-15T02:19:00;100603.31;;;6.84;73.53
73981;BME280;62348;51.412;5.436;2023-04-15T02:21:26;100604.94;;;6.85;74.63
73981;BME280;62348;51.412;5.436;2023-04-15T02:23:51;100610.22;;;6.80;74.68
73981;BME280;62348;51.412;5.436;2023-04-15T02:26:18;100611.25;;;6.79;74.35
73981;BME280;62348;51.412;5.436;2023-04-15T02:28:45;100614.22;;;6.77;74.68
73981;BME280;62348;51.412;5.436;2023-04-15T02:31:10;100610.47;;;6.78;73.36
73981;BME280;62348;51.412;5.436;2023-04-15T02:33:36;100613.94;;;6.79;74.70
73981;BME280;62348;51.412;5.436;2023-04-15T02:36:02;100621.44;;;6.77;74.06
73981;BME280;62348;51.412;5.436;2023-04-15T02:38:28;100625.19;;;6.76;75.20
73981;BME280;62348;51.412;5.436;2023-04-15T02:40:53;100623.78;;;6.73;74.74
73981;BME280;62348;51.412;5.436;2023-04-15T02:43:18;100629.16;;;6.73;75.60
73981;BME280;62348;51.412;5.436;2023-04-15T02:45:45;100630.47;;;6.71;75.10
73981;BME280;62348;51.412;5.436;2023-04-15T02:48:11;100627.44;;;6.67;75.27
73981;BME280;62348;51.412;5.436;2023-04-15T02:50:37;100628.25;;;6.68;74.90
73981;BME280;62348;51.412;5.436;2023-04-15T02:53:05;100634.13;;;6.64;74.67
73981;BME280;62348;51.412;5.436;2023-04-15T02:55:31;100636.72;;;6.59;74.57
73981;BME280;62348;51.412;5.436;2023-04-15T02:57:56;100636.72;;;6.59;75.45
73981;BME280;62348;51.412;5.436;2023-04-15T03:00:25;100640.94;;;6.55;75.13
73981;BME280;62348;51.412;5.436;2023-04-15T03:02:57;100640.13;;;6.55;74.81
73981;BME280;62348;51.412;5.436;2023-04-15T03:05:22;100638.38;;;6.49;75.21
73981;BME280;62348;51.412;5.436;2023-04-15T03:07:51;100642.59;;;6.44;75.60
73981;BME280;62348;51.412;5.436;2023-04-15T03:10:17;100638.06;;;6.45;75.47
73981;BME280;62348;51.412;5.436;2023-04-15T03:12:42;100635.38;;;6.45;75.29
73981;BME280;62348;51.412;5.436;2023-04-15T03:15:08;100632.56;;;6.40;75.04
73981;BME280;62348;51.412;5.436;2023-04-15T03:17:34;100632.91;;;6.43;75.09
73981;BME280;62348;51.412;5.436;2023-04-15T03:20:03;100636.88;;;6.41;76.15
73981;BME280;62348;51.412;5.436;2023-04-15T03:22:33;100645.19;;;6.39;75.64
73981;BME280;62348;51.412;5.436;2023-04-15T03:24:58;100639.72;;;6.34;75.93
73981;BME280;62348;51.412;5.436;2023-04-15T03:27:24;100636.22;;;6.34;76.06
73981;BME280;62348;51.412;5.436;2023-04-15T03:29:50;100644.16;;;6.29;76.01
73981;BME280;62348;51.412;5.436;2023-04-15T03:32:16;100646.50;;;6.25;76.39
73981;BME280;62348;51.412;5.436;2023-04-15T03:34:42;100645.13;;;6.22;76.53
73981;BME280;62348;51.412;5.436;2023-04-15T03:37:07;100650.94;;;6.19;76.52
73981;BME280;62348;51.412;5.436;2023-04-15T03:39:33;100644.53;;;6.20;76.62
73981;BME280;62348;51.412;5.436;2023-04-15T03:41:58;100653.84;;;6.18;76.40
73981;BME280;62348;51.412;5.436;2023-04-15T03:44:27;100657.34;;;6.18;76.77
73981;BME280;62348;51.412;5.436;2023-04-15T03:46:52;100652.69;;;6.14;76.96
73981;BME280;62348;51.412;5.436;2023-04-15T03:49:18;100659.09;;;6.13;76.92
73981;BME280;62348;51.412;5.436;2023-04-15T03:51:44;100662.88;;;6.12;76.83
73981;BME280;62348;51.412;5.436;2023-04-15T03:54:10;100665.91;;;6.03;77.42
73981;BME280;62348;51.412;5.436;2023-04-15T03:56:36;100663.81;;;6.05;77.16
73981;BME280;62348;51.412;5.436;2023-04-15T03:59:01;100668.59;;;6.03;77.26
73981;BME280;62348;51.412;5.436;2023-04-15T04:01:26;100678.41;;;5.98;77.09
73981;BME280;62348;51.412;5.436;2023-04-15T04:03:52;100669.28;;;5.99;77.45
73981;BME280;62348;51.412;5.436;2023-04-15T04:06:17;100676.53;;;5.98;77.16
73981;BME280;62348;51.412;5.436;2023-04-15T04:08:43;100684.00;;;5.96;77.80
73981;BME280;62348;51.412;5.436;2023-04-15T04:11:08;100683.03;;;5.91;77.61
73981;BME280;62348;51.412;5.436;2023-04-15T04:13:34;100691.53;;;5.87;77.66
73981;BME280;62348;51.412;5.436;2023-04-15T04:15:59;100696.69;;;5.89;78.09
73981;BME280;62348;51.412;5.436;2023-04-15T04:18:24;100694.44;;;5.86;77.70
73981;BME280;62348;51.412;5.436;2023-04-15T04:20:50;100697.75;;;5.88;77.96
73981;BME280;62348;51.412;5.436;2023-04-15T04:23:15;100703.91;;;5.89;78.59
73981;BME280;62348;51.412;5.436;2023-04-15T04:25:41;100707.88;;;5.86;78.47
73981;BME280;62348;51.412;5.436;2023-04-15T04:28:06;100718.16;;;5.89;78.20
73981;BME280;62348;51.412;5.436;2023-04-15T04:30:32;100715.34;;;5.84;78.27
73981;BME280;62348;51.412;5.436;2023-04-15T04:32:57;100718.84;;;5.84;78.40
73981;BME280;62348;51.412;5.436;2023-04-15T04:35:23;100726.91;;;5.84;78.89
73981;BME280;62348;51.412;5.436;2023-04-15T04:37:48;100725.25;;;5.83;78.82
73981;BME280;62348;51.412;5.436;2023-04-15T04:40:14;100728.16;;;5.82;78.77
73981;BME280;62348;51.412;5.436;2023-04-15T04:42:39;100732.72;;;5.81;78.94
73981;BME280;62348;51.412;5.436;2023-04-15T04:45:05;100738.53;;;5.78;79.18
73981;BME280;62348;51.412;5.436;2023-04-15T04:47:30;100745.34;;;5.81;79.08
73981;BME280;62348;51.412;5.436;2023-04-15T04:49:56;100746.84;;;5.77;78.75
73981;BME280;62348;51.412;5.436;2023-04-15T04:52:21;100744.16;;;5.77;79.17
73981;BME280;62348;51.412;5.436;2023-04-15T04:54:46;100749.28;;;5.78;79.25
73981;BME280;62348;51.412;5.436;2023-04-15T04:57:12;100759.19;;;5.78;78.93
73981;BME280;62348;51.412;5.436;2023-04-15T04:59:38;100750.56;;;5.76;79.47
73981;BME280;62348;51.412;5.436;2023-04-15T05:02:03;100757.81;;;5.75;79.33
73981;BME280;62348;51.412;5.436;2023-04-15T05:04:29;100764.69;;;5.71;79.40
73981;BME280;62348;51.412;5.436;2023-04-15T05:06:56;100755.78;;;5.71;79.42
73981;BME280;62348;51.412;5.436;2023-04-15T05:09:22;100768.41;;;5.70;79.46
73981;BME280;62348;51.412;5.436;2023-04-15T05:11:47;100770.28;;;5.70;80.06
73981;BME280;62348;51.412;5.436;2023-04-15T05:14:13;100776.22;;;5.72;80.28
73981;BME280;62348;51.412;5.436;2023-04-15T05:16:38;100782.84;;;5.69;80.46
73981;BME280;62348;51.412;5.436;2023-04-15T05:19:03;100776.44;;;5.70;80.59
73981;BME280;62348;51.412;5.436;2023-04-15T05:21:29;100791.50;;;5.71;80.37
73981;BME280;62348;51.412;5.436;2023-04-15T05:23:55;100787.75;;;5.72;80.48
73981;BME280;62348;51.412;5.436;2023-04-15T05:26:20;100791.25;;;5.73;80.63
73981;BME280;62348;51.412;5.436;2023-04-15T05:28:46;100794.78;;;5.73;80.72
73981;BME280;62348;51.412;5.436;2023-04-15T05:31:12;100806.09;;;5.75;80.72
73981;BME280;62348;51.412;5.436;2023-04-15T05:33:37;100804.44;;;5.74;81.05
73981;BME280;62348;51.412;5.436;2023-04-15T05:36:03;100800.72;;;5.75;80.66
73981;BME280;62348;51.412;5.436;2023-04-15T05:38:28;100810.19;;;5.78;81.20
73981;BME280;62348;51.412;5.436;2023-04-15T05:40:53;100812.88;;;5.78;81.23
73981;BME280;62348;51.412;5.436;2023-04-15T05:43:19;100817.19;;;5.79;80.85
73981;BME280;62348;51.412;5.436;2023-04-15T05:45:44;100819.03;;;5.78;81.53
73981;BME280;62348;51.412;5.436;2023-04-15T05:48:10;100831.19;;;5.81;81.49
73981;BME280;62348;51.412;5.436;2023-04-15T05:50:35;100837.38;;;5.81;81.49
73981;BME280;62348;51.412;5.436;2023-04-15T05:53:00;100837.97;;;5.83;81.97
73981;BME280;62348;51.412;5.436;2023-04-15T05:55:26;100842.28;;;5.84;81.71
73981;BME280;62348;51.412;5.436;2023-04-15T05:57:51;100846.59;;;5.85;81.51
73981;BME280;62348;51.412;5.436;2023-04-15T06:00:17;100847.78;;;5.90;82.03
73981;BME280;62348;51.412;5.436;2023-04-15T06:02:42;100850.59;;;5.95;81.80
73981;BME280;62348;51.412;5.436;2023-04-15T06:05:08;100850.97;;;5.98;82.46
73981;BME280;62348;51.412;5.436;2023-04-15T06:07:34;100851.72;;;6.05;82.09
73981;BME280;62348;51.412;5.436;2023-04-15T06:10:04;100853.25;;;6.13;82.00
73981;BME280;62348;51.412;5.436;2023-04-15T06:12:30;100867.97;;;6.22;81.98
73981;BME280;62348;51.412;5.436;2023-04-15T06:14:55;100870.31;;;6.31;81.66
73981;BME280;62348;51.412;5.436;2023-04-15T06:17:21;100872.75;;;6.44;81.19
73981;BME280;62348;51.412;5.436;2023-04-15T06:19:46;100877.69;;;6.59;81.34
73981;BME280;62348;51.412;5.436;2023-04-15T06:22:11;100882.13;;;6.77;80.52
73981;BME280;62348;51.412;5.436;2023-04-15T06:24:37;100888.28;;;7.01;80.78
73981;BME280;62348;51.412;5.436;2023-04-15T06:27:02;100891.41;;;7.21;80.56
73981;BME280;62348;51.412;5.436;2023-04-15T06:29:28;100897.22;;;7.42;79.71
73981;BME280;62348;51.412;5.436;2023-04-15T06:31:53;100895.75;;;7.63;78.46
73981;BME280;62348;51.412;5.436;2023-04-15T06:34:20;100899.88;;;7.82;77.48
73981;BME280;62348;51.412;5.436;2023-04-15T06:36:46;100904.16;;;7.95;76.46
73981;BME280;62348;51.412;5.436;2023-04-15T06:39:12;100909.25;;;8.09;75.29
73981;BME280;62348;51.412;5.436;2023-04-15T06:41:37;100918.91;;;8.21;75.93
73981;BME280;62348;51.412;5.436;2023-04-15T06:44:03;100918.38;;;8.25;75.01
73981;BME280;62348;51.412;5.436;2023-04-15T06:46:28;100923.41;;;8.33;74.98
73981;BME280;62348;51.412;5.436;2023-04-15T06:48:54;100918.19;;;8.43;75.04
73981;BME280;62348;51.412;5.436;2023-04-15T06:51:20;100931.81;;;8.53;74.28
73981;BME280;62348;51.412;5.436;2023-04-15T06:53:45;100934.94;;;8.62;73.77
73981;BME280;62348;51.412;5.436;2023-04-15T06:56:11;100933.72;;;8.70;73.30
73981;BME280;62348;51.412;5.436;2023-04-15T06:58:36;100940.09;;;8.81;73.17
73981;BME280;62348;51.412;5.436;2023-04-15T07:01:01;100942.50;;;8.99;73.13
73981;BME280;62348;51.412;5.436;2023-04-15T07:03:28;100953.53;;;9.14;72.14
73981;BME280;62348;51.412;5.436;2023-04-15T07:05:53;100958.38;;;9.34;71.94
73981;BME280;62348;51.412;5.436;2023-04-15T07:08:19;100961.34;;;9.77;71.01
73981;BME280;62348;51.412;5.436;2023-04-15T07:10:47;100962.63;;;10.24;68.15
73981;BME280;62348;51.412;5.436;2023-04-15T07:13:13;100955.97;;;10.31;68.27
73981;BME280;62348;51.412;5.436;2023-04-15T07:15:38;100968.44;;;10.32;67.83
73981;BME280;62348;51.412;5.436;2023-04-15T07:18:04;100965.16;;;10.30;68.49
73981;BME280;62348;51.412;5.436;2023-04-15T07:20:29;100981.94;;;10.32;67.22
73981;BME280;62348;51.412;5.436;2023-04-15T07:22:55;100978.41;;;10.32;68.05
73981;BME280;62348;51.412;5.436;2023-04-15T07:25:20;100977.97;;;10.40;67.51
73981;BME280;62348;51.412;5.436;2023-04-15T07:27:45;100979.31;;;10.43;67.77
73981;BME280;62348;51.412;5.436;2023-04-15T07:30:11;100987.00;;;10.51;67.76
73981;BME280;62348;51.412;5.436;2023-04-15T07:32:37;100988.66;;;10.57;67.64
73981;BME280;62348;51.412;5.436;2023-04-15T07:35:02;100991.97;;;10.64;66.57
73981;BME280;62348;51.412;5.436;2023-04-15T07:37:28;101003.94;;;10.73;67.40
73981;BME280;62348;51.412;5.436;2023-04-15T07:39:54;101004.31;;;10.87;67.26
73981;BME280;62348;51.412;5.436;2023-04-15T07:42:20;101001.09;;;10.90;65.93
73981;BME280;62348;51.412;5.436;2023-04-15T07:44:45;101008.47;;;11.00;65.50
73981;BME280;62348;51.412;5.436;2023-04-15T07:47:11;101006.66;;;11.11;65.24
73981;BME280;62348;51.412;5.436;2023-04-15T07:49:36;101007.00;;;11.20;64.87
73981;BME280;62348;51.412;5.436;2023-04-15T07:52:02;101014.06;;;11.26;64.41
73981;BME280;62348;51.412;5.436;2023-04-15T07:54:27;101022.81;;;11.43;63.70
73981;BME280;62348;51.412;5.436;2023-04-15T07:56:53;101020.19;;;11.53;64.83
73981;BME280;62348;51.412;5.436;2023-04-15T07:59:18;101019.41;;;11.63;64.09
73981;BME280;62348;51.412;5.436;2023-04-15T08:01:44;101038.44;;;11.79;63.05
73981;BME280;62348;51.412;5.436;2023-04-15T08:04:09;101030.34;;;11.84;62.05
73981;BME280;62348;51.412;5.436;2023-04-15T08:06:35;101042.06;;;11.89;61.35
73981;BME280;62348;51.412;5.436;2023-04-15T08:09:01;101046.13;;;11.92;61.19
73981;BME280;62348;51.412;5.436;2023-04-15T08:11:26;101048.56;;;11.99;61.36
73981;BME280;62348;51.412;5.436;2023-04-15T08:13:52;101043.44;;;12.02;60.93
73981;BME280;62348;51.412;5.436;2023-04-15T08:16:23;101052.97;;;12.10;61.31
73981;BME280;62348;51.412;5.436;2023-04-15T08:18:51;101061.13;;;12.15;60.58
73981;BME280;62348;51.412;5.436;2023-04-15T08:21:18;101062.78;;;12.26;60.97
73981;BME280;62348;51.412;5.436;2023-04-15T08:23:45;101068.78;;;12.34;60.17
73981;BME280;62348;51.412;5.436;2023-04-15T08:26:11;101061.19;;;12.36;60.54
73981;BME280;62348;51.412;5.436;2023-04-15T08:28:38;101068.53;;;12.45;59.10
73981;BME280;62348;51.412;5.436;2023-04-15T08:31:04;101066.34;;;12.47;59.43
73981;BME280;62348;51.412;5.436;2023-04-15T08:33:29;101064.16;;;12.44;58.98
73981;BME280;62348;51.412;5.436;2023-04-15T08:35:55;101068.53;;;12.56;60.08
73981;BME280;62348;51.412;5.436;2023-04-15T08:38:21;101079.44;;;12.71;60.73
73981;BME280;62348;51.412;5.436;2023-04-15T08:40:47;101075.63;;;12.77;59.46
73981;BME280;62348;51.412;5.436;2023-04-15T08:43:17;101084.06;;;12.81;58.87
73981;BME280;62348;51.412;5.436;2023-04-15T08:45:45;101088.94;;;12.94;59.40
73981;BME280;62348;51.412;5.436;2023-04-15T08:48:14;101090.84;;;13.09;59.38
73981;BME280;62348;51.412;5.436;2023-04-15T08:50:41;101087.06;;;13.15;58.12
73981;BME280;62348;51.412;5.436;2023-04-15T08:53:08;101099.25;;;13.18;57.49
73981;BME280;62348;51.412;5.436;2023-04-15T08:55:35;101102.53;;;13.25;57.57
73981;BME280;62348;51.412;5.436;2023-04-15T08:58:04;101118.28;;;13.38;56.63
73981;BME280;62348;51.412;5.436;2023-04-15T09:00:31;101120.19;;;13.48;56.10
73981;BME280;62348;51.412;5.436;2023-04-15T09:02:58;101121.81;;;13.44;54.87
73981;BME280;62348;51.412;5.436;2023-04-15T09:05:23;101134.84;;;13.32;53.71
73981;BME280;62348;51.412;5.436;2023-04-15T09:07:51;101131.31;;;13.21;54.50
73981;BME280;62348;51.412;5.436;2023-04-15T09:10:17;101143.00;;;13.32;54.95
73981;BME280;62348;51.412;5.436;2023-04-15T09:12:42;101136.75;;;13.36;54.86
73981;BME280;62348;51.412;5.436;2023-04-15T09:15:10;101154.16;;;13.45;54.22
73981;BME280;62348;51.412;5.436;2023-04-15T09:17:43;101160.69;;;13.39;52.73
73981;BME280;62348;51.412;5.436;2023-04-15T09:20:11;101157.69;;;13.36;53.37
73981;BME280;62348;51.412;5.436;2023-04-15T09:22:38;101160.41;;;13.36;51.95
73981;BME280;62348;51.412;5.436;2023-04-15T09:27:50;101169.03;;;13.17;53.45
73981;BME280;62348;51.412;5.436;2023-04-15T09:30:16;101175.81;;;13.04;54.21
73981;BME280;62348;51.412;5.436;2023-04-15T09:32:53;101182.06;;;13.00;54.50
73981;BME280;62348;51.412;5.436;2023-04-15T09:35:22;101181.50;;;12.93;54.34
73981;BME280;62348;51.412;5.436;2023-04-15T09:37:49;101173.91;;;13.00;55.36
73981;BME280;62348;51.412;5.436;2023-04-15T09:40:31;101176.88;;;12.98;54.59
73981;BME280;62348;51.412;5.436;2023-04-15T09:42:59;101176.06;;;12.98;52.66
73981;BME280;62348;51.412;5.436;2023-04-15T09:45:26;101182.31;;;12.98;52.64
73981;BME280;62348;51.412;5.436;2023-04-15T09:47:52;101187.47;;;13.00;52.75
73981;BME280;62348;51.412;5.436;2023-04-15T09:50:21;101194.53;;;13.06;53.88
73981;BME280;62348;51.412;5.436;2023-04-15T09:52:46;101182.31;;;13.08;53.74
73981;BME280;62348;51.412;5.436;2023-04-15T09:55:13;101188.03;;;13.12;52.95
73981;BME280;62348;51.412;5.436;2023-04-15T09:57:40;101188.31;;;13.21;55.00
73981;BME280;62348;51.412;5.436;2023-04-15T10:00:07;101190.75;;;13.27;53.19
73981;BME280;62348;51.412;5.436;2023-04-15T10:02:36;101184.03;;;13.30;52.24
73981;BME280;62348;51.412;5.436;2023-04-15T10:05:02;101209.75;;;13.27;52.99
73981;BME280;62348;51.412;5.436;2023-04-15T10:07:28;101196.16;;;13.12;52.59
73981;BME280;62348;51.412;5.436;2023-04-15T10:09:54;101206.50;;;13.10;53.27
73981;BME280;62348;51.412;5.436;2023-04-15T10:12:21;101200.22;;;13.04;53.51
73981;BME280;62348;51.412;5.436;2023-04-15T10:14:58;101204.06;;;13.03;53.93
73981;BME280;62348;51.412;5.436;2023-04-15T10:17:26;101208.13;;;13.06;55.04
73981;BME280;62348;51.412;5.436;2023-04-15T10:19:53;101212.44;;;13.02;53.27
73981;BME280;62348;51.412;5.436;2023-04-15T10:22:21;101208.91;;;13.06;54.35
73981;BME280;62348;51.412;5.436;2023-04-15T10:24:48;101213.03;;;13.09;54.04
73981;BME280;62348;51.412;5.436;2023-04-15T10:27:16;101208.66;;;13.08;53.19
73981;BME280;62348;51.412;5.436;2023-04-15T10:29:42;101203.78;;;13.10;51.60
73981;BME280;62348;51.412;5.436;2023-04-15T10:32:08;101213.84;;;13.15;52.57
73981;BME280;62348;51.412;5.436;2023-04-15T10:34:35;101208.41;;;13.15;51.45
73981;BME280;62348;51.412;5.436;2023-04-15T10:37:02;101220.09;;;13.20;51.59
73981;BME280;62348;51.412;5.436;2023-04-15T10:39:39;101216.03;;;13.28;52.43
73981;BME280;62348;51.412;5.436;2023-04-15T10:42:13;101220.63;;;13.27;52.19
73981;BME280;62348;51.412;5.436;2023-04-15T10:44:44;101217.38;;;13.25;51.49
73981;BME280;62348;51.412;5.436;2023-04-15T10:47:13;101222.84;;;13.31;51.63
73981;BME280;62348;51.412;5.436;2023-04-15T10:49:44;101221.22;;;13.35;51.87
73981;BME280;62348;51.412;5.436;2023-04-15T10:52:09;101222.25;;;13.23;48.51
73981;BME280;62348;51.412;5.436;2023-04-15T10:54:36;101230.94;;;13.25;48.63
73981;BME280;62348;51.412;5.436;2023-04-15T10:59:35;101236.91;;;13.27;50.84
73981;BME280;62348;51.412;5.436;2023-04-15T11:02:03;101237.47;;;13.29;51.73
73981;BME280;62348;51.412;5.436;2023-04-15T11:10:01;101234.81;;;13.40;50.94
73981;BME280;62348;51.412;5.436;2023-04-15T11:12:34;101242.69;;;13.41;51.06
73981;BME280;62348;51.412;5.436;2023-04-15T11:20:34;101252.19;;;13.34;49.04
73981;BME280;62348;51.412;5.436;2023-04-15T11:23:00;101241.53;;;13.27;49.83
73981;BME280;62348;51.412;5.436;2023-04-15T11:25:33;101245.41;;;13.36;50.85
73981;BME280;62348;51.412;5.436;2023-04-15T11:28:00;101257.09;;;13.42;48.82
73981;BME280;62348;51.412;5.436;2023-04-15T11:30:31;101249.22;;;13.56;50.05
73981;BME280;62348;51.412;5.436;2023-04-15T11:33:00;101239.72;;;13.69;49.01
73981;BME280;62348;51.412;5.436;2023-04-15T11:35:26;101246.78;;;13.75;49.19
73981;BME280;62348;51.412;5.436;2023-04-15T11:37:51;101253.84;;;13.76;49.18
73981;BME280;62348;51.412;5.436;2023-04-15T11:40:29;101255.22;;;13.83;51.15
73981;BME280;62348;51.412;5.436;2023-04-15T11:45:29;101263.09;;;13.80;48.20
73981;BME280;62348;51.412;5.436;2023-04-15T11:48:12;101273.94;;;13.90;48.64
73981;BME280;62348;51.412;5.436;2023-04-15T11:50:38;101266.34;;;13.87;48.74
73981;BME280;62348;51.412;5.436;2023-04-15T11:53:10;101269.06;;;13.87;48.83
73981;BME280;62348;51.412;5.436;2023-04-15T11:55:49;101276.41;;;13.81;49.84
73981;BME280;62348;51.412;5.436;2023-04-15T11:58:19;101272.31;;;13.79;50.09
73981;BME280;62348;51.412;5.436;2023-04-15T12:00:46;101276.94;;;13.73;49.63
73981;BME280;62348;51.412;5.436;2023-04-15T12:06:04;101290.00;;;13.66;51.43
73981;BME280;62348;51.412;5.436;2023-04-15T12:11:27;101279.66;;;13.63;51.82
73981;BME280;62348;51.412;5.436;2023-04-15T12:13:58;101288.88;;;13.57;51.10
73981;BME280;62348;51.412;5.436;2023-04-15T12:16:24;101292.66;;;13.51;50.68
73981;BME280;62348;51.412;5.436;2023-04-15T12:18:51;101302.19;;;13.48;51.17
73981;BME280;62348;51.412;5.436;2023-04-15T12:21:20;101298.91;;;13.46;53.16
73981;BME280;62348;51.412;5.436;2023-04-15T12:23:54;101291.88;;;13.45;52.48
73981;BME280;62348;51.412;5.436;2023-04-15T12:26:36;101301.91;;;13.44;52.21
73981;BME280;62348;51.412;5.436;2023-04-15T12:29:05;101297.31;;;13.45;53.47
73981;BME280;62348;51.412;5.436;2023-04-15T12:31:31;101303.53;;;13.51;53.14
73981;BME280;62348;51.412;5.436;2023-04-15T12:33:57;101314.41;;;13.56;53.24
73981;BME280;62348;51.412;5.436;2023-04-15T12:36:24;101318.50;;;13.58;51.93
73981;BME280;62348;51.412;5.436;2023-04-15T12:38:49;101323.66;;;13.65;51.57
73981;BME280;62348;51.412;5.436;2023-04-15T12:41:15;101328.84;;;13.72;51.27
73981;BME280;62348;51.412;5.436;2023-04-15T12:43:40;101320.41;;;13.78;50.61
73981;BME280;62348;51.412;5.436;2023-04-15T12:46:06;101329.41;;;13.89;51.30
73981;BME280;62348;51.412;5.436;2023-04-15T12:48:33;101321.25;;;13.89;51.50
73981;BME280;62348;51.412;5.436;2023-04-15T12:50:59;101338.63;;;13.88;51.44
73981;BME280;62348;51.412;5.436;2023-04-15T12:53:24;101340.78;;;13.81;51.50
73981;BME280;62348;51.412;5.436;2023-04-15T12:55:50;101343.50;;;13.81;50.46
73981;BME280;62348;51.412;5.436;2023-04-15T12:58:16;101335.13;;;13.77;51.43
73981;BME280;62348;51.412;5.436;2023-04-15T13:00:42;101340.53;;;13.72;51.79
73981;BME280;62348;51.412;5.436;2023-04-15T13:03:07;101354.91;;;13.67;50.85
73981;BME280;62348;51.412;5.436;2023-04-15T13:05:33;101352.75;;;13.64;51.32
73981;BME280;62348;51.412;5.436;2023-04-15T13:07:58;101351.94;;;13.64;51.93
73981;BME280;62348;51.412;5.436;2023-04-15T13:10:23;101357.09;;;13.65;52.32
73981;BME280;62348;51.412;5.436;2023-04-15T13:12:49;101361.16;;;13.73;52.85
73981;BME280;62348;51.412;5.436;2023-04-15T13:15:18;101358.19;;;13.75;50.67